Time;durP1;ratioP1;P1;durP2;ratioP2;P2;SDS_P1;SDS_P2;PMS_P1;PMS_P2;Temp;Humidity;BMP_temperature;BMP_pressure;BME280_temperature;BME280_humidity;BME280_pressure;Samples;Min_cycle;Max_cycle;Signal;HPM_P1;HPM_P2
2022/12/05 02:31:09;;;;;;;10.80;3.50;;;;;;;-10.72;100.00;101639.30;1863933;77;23258;-67
2022/12/05 02:33:46;;;;;;;5.43;3.13;;;;;;;-10.66;100.00;101649.33;1774313;81;21085;-65
2022/12/05 02:36:24;;;;;;;7.23;3.10;;;;;;;-10.63;100.00;101650.20;1816895;78;21048;-67
2022/12/05 02:39:06;;;;;;;10.33;3.07;;;;;;;-10.61;100.00;101652.83;1839638;78;21017;-67
2022/12/05 02:41:50;;;;;;;6.77;3.37;;;;;;;-10.60;100.00;101652.83;1837399;78;21115;-67
2022/12/05 02:44:25;;;;;;;4.40;2.60;;;;;;;-10.59;100.00;101650.64;1839917;78;20985;-68
2022/12/05 02:46:53;;;;;;;13.60;3.00;;;;;;;-10.59;100.00;101655.00;1838803;78;21006;-68
2022/12/05 02:49:25;;;;;;;8.83;3.10;;;;;;;-10.58;100.00;101658.07;1839020;78;20998;-67
2022/12/05 02:51:56;;;;;;;6.83;3.37;;;;;;;-10.58;100.00;101664.61;1838783;78;21494;-67
2022/12/05 02:54:26;;;;;;;11.47;3.17;;;;;;;-10.58;100.00;101655.45;1838943;78;20981;-67
2022/12/05 02:56:54;;;;;;;9.47;3.23;;;;;;;-10.58;100.00;101654.15;1838883;78;21001;-66
2022/12/05 02:59:23;;;;;;;5.83;2.43;;;;;;;-10.59;100.00;101662.84;1838698;78;20993;-67
2022/12/05 03:01:50;;;;;;;5.07;2.47;;;;;;;-10.58;100.00;101666.78;1838734;78;21018;-67
2022/12/05 03:04:18;;;;;;;10.50;3.77;;;;;;;-10.58;100.00;101666.78;1838955;78;21026;-67
2022/12/05 03:07:06;;;;;;;4.57;2.47;;;;;;;-10.58;100.00;101656.77;1838964;78;21056;-67
2022/12/05 03:09:40;;;;;;;8.73;3.67;;;;;;;-10.59;100.00;101661.09;1838993;78;21002;-67
2022/12/05 03:12:15;;;;;;;7.27;3.20;;;;;;;-10.60;100.00;101661.13;1838678;78;21045;-66
2022/12/05 03:15:02;;;;;;;9.70;2.57;;;;;;;-10.61;100.00;101661.98;1838860;78;21016;-67
2022/12/05 03:17:34;;;;;;;5.80;2.90;;;;;;;-10.61;100.00;101665.90;1838646;78;21021;-67
2022/12/05 03:20:24;;;;;;;9.40;2.83;;;;;;;-10.63;100.00;101659.36;1839093;78;20985;-68
2022/12/05 03:23:15;;;;;;;6.93;2.97;;;;;;;-10.64;100.00;101663.27;1838566;78;21018;-67
2022/12/05 03:26:10;;;;;;;7.27;2.87;;;;;;;-10.65;100.00;101661.55;1838891;78;21487;-67
2022/12/05 03:28:39;;;;;;;9.53;2.87;;;;;;;-10.65;100.00;101668.94;1828312;78;21045;-67
2022/12/05 03:31:09;;;;;;;6.92;3.65;;;;;;;-10.67;100.00;101666.77;1836224;78;21030;-67
2022/12/05 03:33:41;;;;;;;8.83;2.40;;;;;;;-10.70;100.00;101658.47;1838225;78;21558;-67
2022/12/05 03:36:14;;;;;;;5.87;2.87;;;;;;;-10.70;100.00;101674.15;1841190;78;21072;-66
2022/12/05 03:39:10;;;;;;;12.67;2.93;;;;;;;-10.68;100.00;101674.60;1841052;78;20970;-66
2022/12/05 03:42:10;;;;;;;9.97;2.73;;;;;;;-10.68;100.00;101678.52;1839875;78;21037;-67
2022/12/05 03:44:44;;;;;;;6.93;3.07;;;;;;;-10.69;100.00;101675.05;1840609;78;21064;-67
2022/12/05 03:47:26;;;;;;;8.25;2.70;;;;;;;-10.68;100.00;101680.69;1840223;78;21021;-67
2022/12/05 03:50:00;;;;;;;7.30;3.10;;;;;;;-10.70;100.00;101669.37;1840812;78;21041;-66
2022/12/05 03:52:35;;;;;;;6.70;2.77;;;;;;;-10.70;100.00;101675.45;1809357;78;21021;-68
2022/12/05 03:55:04;;;;;;;4.63;3.00;;;;;;;-10.71;100.00;101675.45;1840564;78;21029;-67
2022/12/05 03:57:48;;;;;;;3.17;2.63;;;;;;;-10.73;100.00;101683.73;1841028;78;20970;-67
2022/12/05 04:00:18;;;;;;;7.67;3.27;;;;;;;-10.71;100.00;101678.06;1840879;78;21029;-68
2022/12/05 04:03:07;;;;;;;12.50;3.00;;;;;;;-10.71;100.00;101690.72;1841037;78;21488;-67
2022/12/05 04:05:42;;;;;;;11.37;3.07;;;;;;;-10.73;100.00;101685.92;1840722;78;21024;-66
2022/12/05 04:08:20;;;;;;;5.33;2.80;;;;;;;-10.75;100.00;101687.64;1841095;78;21053;-67
2022/12/05 04:10:49;;;;;;;3.33;2.30;;;;;;;-10.75;100.00;101692.86;1821078;78;20998;-67
2022/12/05 04:13:26;;;;;;;10.23;3.10;;;;;;;-10.74;100.00;101689.84;1840866;78;21052;-66
2022/12/05 04:18:52;;;;;;;10.40;3.08;;;;;;;-10.75;100.00;101692.86;1841212;78;21029;-66
2022/12/05 04:21:37;;;;;;;6.73;2.97;;;;;;;-10.75;100.00;101693.31;1803470;79;21487;-66
2022/12/05 04:27:24;;;;;;;4.80;2.90;;;;;;;-10.76;100.00;101689.83;1838179;78;21030;-66
2022/12/05 04:29:57;;;;;;;4.80;2.93;;;;;;;-10.76;100.00;101695.06;1833551;78;21050;-67
2022/12/05 04:32:26;;;;;;;7.77;3.00;;;;;;;-10.76;100.00;101677.20;1821367;78;21010;-66
2022/12/05 04:34:57;;;;;;;11.00;3.60;;;;;;;-10.76;100.00;101681.13;1820966;78;20978;-67
2022/12/05 04:37:25;;;;;;;6.23;2.60;;;;;;;-10.76;100.00;101683.30;1772312;80;21021;-67
2022/12/05 04:40:03;;;;;;;9.27;3.00;;;;;;;-10.79;100.00;101686.34;1803768;79;21057;-67
2022/12/05 04:42:31;;;;;;;8.23;3.13;;;;;;;-10.80;100.00;101672.41;1820601;79;21042;-67
2022/12/05 04:45:08;;;;;;;11.37;3.00;;;;;;;-10.80;100.00;101676.33;1769635;81;21028;-66
2022/12/05 04:47:40;;;;;;;9.30;3.33;;;;;;;-10.79;100.00;101675.44;1803738;79;21010;-66
2022/12/05 04:50:09;;;;;;;10.18;3.22;;;;;;;-10.79;100.00;101674.58;1820978;79;21095;-67
2022/12/05 04:52:36;;;;;;;5.40;2.53;;;;;;;-10.80;100.00;101671.52;1772238;81;21052;-67
2022/12/05 04:55:12;;;;;;;7.10;3.60;;;;;;;-10.81;100.00;101668.03;1803843;79;21076;-67
2022/12/05 04:58:01;;;;;;;16.43;3.93;;;;;;;-10.83;100.00;101675.00;1820721;79;20998;-67
2022/12/05 05:00:28;;;;;;;8.27;2.90;;;;;;;-10.84;100.00;101675.86;1772228;81;21503;-67
2022/12/05 05:03:19;;;;;;;4.80;3.10;;;;;;;-10.85;100.00;101679.77;1803848;79;21013;-67
2022/12/05 05:05:47;;;;;;;3.50;2.70;;;;;;;-10.85;100.00;101680.66;1820710;79;21085;-67
2022/12/05 05:08:24;;;;;;;7.90;3.57;;;;;;;-10.85;100.00;101679.77;1772092;81;21013;-68
2022/12/05 05:11:16;;;;;;;3.80;2.57;;;;;;;-10.86;100.00;101684.13;1803738;79;21495;-67
2022/12/05 05:13:43;;;;;;;11.13;3.50;;;;;;;-10.87;100.00;101683.68;1820782;79;21034;-67
2022/12/05 05:16:19;;;;;;;7.23;3.20;;;;;;;-10.87;100.00;101677.59;1772888;81;21025;-66
2022/12/05 05:18:47;;;;;;;7.70;2.93;;;;;;;-10.88;100.00;101671.50;1823756;79;20979;-66
2022/12/05 05:21:27;;;;;;;5.33;2.83;;;;;;;-10.87;100.00;101671.06;1772102;80;21053;-67
2022/12/05 05:23:54;;;;;;;7.23;2.80;;;;;;;-10.88;100.00;101675.42;1819295;79;21061;-67
2022/12/05 05:26:21;;;;;;;9.63;3.73;;;;;;;-10.87;100.00;101674.98;1772222;81;21034;-66
2022/12/05 05:28:52;;;;;;;11.03;3.27;;;;;;;-10.87;100.00;101673.67;1820590;79;21027;-67
2022/12/05 05:31:19;;;;;;;7.23;3.23;;;;;;;-10.86;100.00;101678.91;1770026;79;21054;-67
2022/12/05 05:33:51;;;;;;;6.40;3.20;;;;;;;-10.84;100.00;101682.39;1820182;79;21038;-67
2022/12/05 05:36:21;;;;;;;6.57;3.27;;;;;;;-10.83;100.00;101678.92;1820346;78;21049;-67
2022/12/05 05:38:50;;;;;;;8.83;3.50;;;;;;;-10.81;100.00;101681.55;1820127;79;21034;-67
2022/12/05 05:41:22;;;;;;;5.23;3.30;;;;;;;-10.80;100.00;101671.09;1820373;79;21006;-67
2022/12/05 05:43:50;;;;;;;8.80;3.45;;;;;;;-10.78;100.00;101685.04;1820285;78;21523;-67
2022/12/05 05:46:19;;;;;;;7.60;3.50;;;;;;;-10.75;100.00;101681.55;1820008;79;21058;-67
2022/12/05 05:48:47;;;;;;;6.47;2.97;;;;;;;-10.74;100.00;101677.63;1820337;79;21002;-66
2022/12/05 05:51:15;;;;;;;10.17;3.03;;;;;;;-10.74;100.00;101678.94;1820184;78;21046;-68
2022/12/05 05:53:42;;;;;;;6.37;3.37;;;;;;;-10.71;100.00;101689.83;1820319;78;20979;-67
2022/12/05 05:56:12;;;;;;;8.83;2.93;;;;;;;-10.66;100.00;101678.95;1820317;78;21045;-67
2022/12/05 05:58:39;;;;;;;8.50;3.53;;;;;;;-10.57;100.00;101685.94;1820220;78;21006;-67
2022/12/05 06:01:15;;;;;;;6.93;2.73;;;;;;;-10.46;100.00;101690.78;1820413;78;21281;-67
2022/12/05 06:03:42;;;;;;;7.33;3.20;;;;;;;-10.42;100.00;101691.66;1820283;78;21033;-65
2022/12/05 06:06:11;;;;;;;6.47;3.00;;;;;;;-10.41;100.00;101685.53;1820170;78;21098;-66
2022/12/05 06:08:41;;;;;;;4.77;3.10;;;;;;;-10.39;100.00;101687.70;1820146;78;21002;-67
2022/12/05 06:11:13;;;;;;;4.87;3.40;;;;;;;-10.37;100.00;101687.30;1820209;78;21010;-65
2022/12/05 06:13:40;;;;;;;4.87;2.83;;;;;;;-10.37;100.00;101686.00;1806662;79;21416;-67
2022/12/05 06:16:10;;;;;;;8.67;3.70;;;;;;;-10.35;100.00;101685.11;1796201;79;21305;-66
2022/12/05 06:18:37;;;;;;;10.87;3.47;;;;;;;-10.31;100.00;101675.52;1796012;79;21512;-66
2022/12/05 06:21:09;;;;;;;7.13;2.93;;;;;;;-10.28;100.00;101683.34;1796223;80;21057;-66
2022/12/05 06:23:38;;;;;;;6.00;3.17;;;;;;;-10.26;100.00;101680.73;1796194;79;21034;-66
2022/12/05 06:26:05;;;;;;;7.37;3.30;;;;;;;-10.24;100.00;101682.91;1796337;80;21014;-67
2022/12/05 06:28:32;;;;;;;9.63;3.40;;;;;;;-10.22;100.00;101687.70;1795850;79;21026;-66
2022/12/05 06:31:04;;;;;;;10.33;3.17;;;;;;;-10.19;100.00;101688.58;1812303;78;21025;-67
2022/12/05 06:33:31;;;;;;;7.57;3.50;;;;;;;-10.14;100.00;101680.75;1800627;78;21025;-67
2022/12/05 06:36:03;;;;;;;8.20;3.00;;;;;;;-10.07;100.00;101693.37;1824900;78;21435;-67
2022/12/05 06:38:35;;;;;;;7.13;3.87;;;;;;;-10.01;100.00;101689.02;1833228;78;20993;-65
2022/12/05 06:41:08;;;;;;;9.80;3.53;;;;;;;-9.90;100.00;101695.55;1801687;78;21014;-67
2022/12/05 06:43:35;;;;;;;7.07;3.03;;;;;;;-9.79;100.00;101700.36;1833331;78;21025;-66
2022/12/05 06:46:07;;;;;;;9.57;3.67;;;;;;;-9.69;100.00;101695.11;1829718;78;21006;-66
2022/12/05 06:48:34;;;;;;;7.53;3.77;;;;;;;-9.61;100.00;101694.22;1817782;78;20958;-66
2022/12/05 06:51:01;;;;;;;8.37;3.50;;;;;;;-9.52;100.00;101692.03;1816161;78;21226;-66
2022/12/05 06:53:29;;;;;;;9.13;3.50;;;;;;;-9.42;100.00;101688.52;1827463;78;20998;-67
2022/12/05 06:55:59;;;;;;;6.63;3.20;;;;;;;-9.31;100.00;101685.86;1817568;78;21511;-66
2022/12/05 06:58:27;;;;;;;8.37;3.70;;;;;;;-9.20;100.00;101680.59;1833014;78;21045;-66
2022/12/05 07:03:39;;;;;;;7.77;3.03;;;;;;;-9.04;100.00;101688.81;1802099;80;21053;-65
2022/12/05 07:06:07;;;;;;;11.77;3.13;;;;;;;-8.91;100.00;101684.37;1820061;78;21072;-66
2022/12/05 07:08:35;;;;;;;9.67;3.07;;;;;;;-8.77;100.00;101682.14;1810758;78;21006;-65
2022/12/05 07:11:02;;;;;;;7.07;3.50;;;;;;;-8.65;100.00;101682.94;1822842;78;21464;-66
2022/12/05 07:13:30;;;;;;;8.43;3.00;;;;;;;-8.50;100.00;101687.66;1823675;78;21062;-65
2022/12/05 07:15:57;;;;;;;9.20;3.60;;;;;;;-8.35;100.00;101693.23;1831871;78;21070;-65
2022/12/05 07:18:26;;;;;;;11.00;3.50;;;;;;;-8.24;100.00;101684.37;1804263;78;21029;-66
2022/12/05 07:20:59;;;;;;;9.30;2.97;;;;;;;-8.12;100.00;101682.11;1802029;80;21057;-65
2022/12/05 07:23:27;;;;;;;10.07;2.90;;;;;;;-8.01;100.00;101680.71;1810544;78;21049;-72
2022/12/05 07:26:01;;;;;;;7.03;3.10;;;;;;;-7.90;100.00;101685.87;1832934;78;21015;-73
2022/12/05 07:28:26;;;;;;;7.20;3.02;;;;;;;-7.73;100.00;101685.73;1801730;80;20981;-73
2022/12/05 07:31:05;;;;;;;5.03;3.13;;;;;;;-7.55;100.00;101687.30;1816741;78;21077;-74
2022/12/05 07:33:32;;;;;;;9.50;3.93;;;;;;;-7.44;100.00;101691.99;1818714;79;20998;-73
2022/12/05 07:36:09;;;;;;;11.87;4.20;;;;;;;-7.32;100.00;101706.31;1818699;79;21073;-73
2022/12/05 07:38:37;;;;;;;12.77;4.67;;;;;;;-7.22;100.00;101706.21;1818644;78;21558;-75
2022/12/05 07:41:20;;;;;;;6.13;2.97;;;;;;;-7.08;100.00;101720.09;1818763;79;21030;-75
2022/12/05 07:43:50;;;;;;;8.10;3.50;;;;;;;-7.02;100.00;101727.90;1819352;79;21548;-73
2022/12/05 07:46:17;;;;;;;9.97;2.90;;;;;;;-6.99;100.00;101733.13;1819510;79;21075;-67
2022/12/05 07:48:44;;;;;;;7.83;3.77;;;;;;;-6.91;100.00;101737.84;1818959;79;21028;-68
2022/12/05 07:51:11;;;;;;;4.60;2.73;;;;;;;-6.78;100.00;101741.63;1810715;79;21053;-75
2022/12/05 07:53:40;;;;;;;8.37;3.67;;;;;;;-6.68;100.00;101747.22;1805145;79;21066;-75
2022/12/05 07:56:08;;;;;;;8.93;3.20;;;;;;;-6.61;100.00;101755.45;1806444;79;21026;-75
2022/12/05 07:58:35;;;;;;;9.53;3.90;;;;;;;-6.51;100.00;101760.17;1784212;79;21028;-74
2022/12/05 08:01:08;;;;;;;6.27;3.13;;;;;;;-6.40;100.00;101760.88;1801801;80;21045;-73
2022/12/05 08:03:49;;;;;;;12.67;3.73;;;;;;;-6.20;100.00;101762.37;1803380;79;20990;-73
2022/12/05 08:06:22;;;;;;;11.30;3.60;;;;;;;-6.01;100.00;101754.63;1815573;79;21023;-74
2022/12/05 08:08:52;;;;;;;14.57;6.30;;;;;;;-5.82;100.00;101755.64;1819758;79;21454;-75
2022/12/05 08:11:25;;;;;;;6.43;3.57;;;;;;;-5.72;100.00;101769.95;1808272;79;20963;-75
2022/12/05 08:13:52;;;;;;;9.03;3.25;;;;;;;-5.63;100.00;101775.95;1800524;79;21063;-76
2022/12/05 08:16:23;;;;;;;6.50;3.13;;;;;;;-5.56;100.00;101786.81;1818067;79;21043;-76
2022/12/05 08:18:55;;;;;;;6.80;3.30;;;;;;;-5.47;100.00;101787.11;1819815;79;21489;-74
2022/12/05 08:21:27;;;;;;;5.53;3.43;;;;;;;-5.42;100.00;101791.43;1819391;79;21509;-75
2022/12/05 08:23:55;;;;;;;9.30;3.37;;;;;;;-5.31;100.00;101788.61;1817910;79;20986;-75
2022/12/05 08:26:26;;;;;;;7.70;3.27;;;;;;;-5.11;100.00;101790.88;1808997;79;21015;-68
2022/12/05 08:28:56;;;;;;;7.60;3.93;;;;;;;-4.94;100.00;101791.86;1799935;79;21074;-69
2022/12/05 08:31:33;;;;;;;6.50;3.37;;;;;;;-4.82;100.00;101800.00;1816176;78;21068;-77
2022/12/05 08:34:01;;;;;;;7.33;3.70;;;;;;;-4.70;100.00;101803.72;1817115;78;21025;-68
2022/12/05 08:36:31;;;;;;;9.37;3.63;;;;;;;-4.49;100.00;101798.92;1832177;78;20997;-77
2022/12/05 08:39:00;;;;;;;6.77;3.67;;;;;;;-4.37;100.00;101808.34;1829391;78;21048;-68
2022/12/05 08:41:28;;;;;;;7.00;3.30;;;;;;;-4.30;100.00;101811.27;1815130;78;21011;-69
2022/12/05 08:44:04;;;;;;;5.87;3.27;;;;;;;-4.26;100.00;101815.14;1826677;78;20969;-69
2022/12/05 08:46:33;;;;;;;9.73;3.70;;;;;;;-4.23;100.00;101836.68;1812328;78;21060;-66
2022/12/05 08:49:00;;;;;;;10.67;3.43;;;;;;;-4.26;100.00;101838.06;1837199;78;21000;-67
2022/12/05 08:51:27;;;;;;;6.17;3.10;;;;;;;-4.22;100.00;101849.83;1830604;78;21037;-71
2022/12/05 08:53:55;;;;;;;7.90;3.50;;;;;;;-4.15;100.00;101843.11;1811391;78;21033;-72
2022/12/05 08:56:22;;;;;;;6.33;3.10;;;;;;;-4.11;100.00;101847.42;1816962;78;21005;-71
2022/12/05 08:58:49;;;;;;;10.70;3.33;;;;;;;-4.15;100.00;101855.00;1813753;78;21089;-67
2022/12/05 09:01:19;;;;;;;10.30;3.50;;;;;;;-4.18;100.00;101858.56;1827079;78;20997;-64
2022/12/05 09:03:46;;;;;;;8.23;3.20;;;;;;;-4.07;100.00;101859.65;1825377;78;20969;-71
2022/12/05 09:06:18;;;;;;;7.90;3.80;;;;;;;-3.98;100.00;101857.27;1805802;78;21048;-66
2022/12/05 09:08:47;;;;;;;7.42;3.55;;;;;;;-3.86;100.00;101851.70;1813987;78;21009;-65
2022/12/05 09:11:20;;;;;;;8.63;3.50;;;;;;;-3.73;100.00;101851.86;1819159;78;21076;-72
2022/12/05 09:13:48;;;;;;;9.88;4.00;;;;;;;-3.56;100.00;101847.52;1809940;78;21914;-71
2022/12/05 09:16:21;;;;;;;8.10;3.77;;;;;;;-3.38;100.00;101854.56;1813011;78;21530;-70
2022/12/05 09:18:49;;;;;;;6.13;3.30;;;;;;;-3.28;100.00;101859.59;1820227;78;20962;-72
2022/12/05 09:21:21;;;;;;;8.47;3.57;;;;;;;-3.19;100.00;101863.78;1823444;78;21039;-65
2022/12/05 09:23:49;;;;;;;5.90;3.30;;;;;;;-3.15;100.00;101870.77;1818862;78;21078;-73
2022/12/05 09:26:20;;;;;;;9.33;3.57;;;;;;;-3.13;100.00;101874.70;1831223;78;20990;-73
2022/12/05 09:28:47;;;;;;;8.83;3.60;;;;;;;-3.09;100.00;101871.06;1827317;78;21019;-73
2022/12/05 09:31:18;;;;;;;10.70;4.50;;;;;;;-2.93;100.00;101863.59;1817304;78;21071;-72
2022/12/05 09:33:46;;;;;;;8.70;3.30;;;;;;;-2.80;100.00;101857.05;1827933;78;20990;-68
2022/12/05 09:36:27;;;;;;;7.00;3.60;;;;;;;-2.70;100.00;101864.30;1828638;78;21104;-67
2022/12/05 09:39:09;;;;;;;6.93;3.50;;;;;;;-2.63;100.00;101868.53;1814310;78;21085;-75
2022/12/05 09:42:09;;;;;;;12.70;4.07;;;;;;;-2.63;100.00;101869.84;1815210;77;21061;-66
2022/12/05 09:45:06;;;;;;;6.73;3.50;;;;;;;-2.49;100.00;101863.71;1815448;77;20997;-66
2022/12/05 09:47:56;;;;;;;10.20;4.90;;;;;;;-2.37;100.00;101869.13;1799418;78;21034;-68
2022/12/05 09:51:04;;;;;;;13.57;4.00;;;;;;;-2.36;100.00;101864.23;1772004;81;20995;-67
2022/12/05 09:53:38;;;;;;;8.27;3.60;;;;;;;-2.34;100.00;101868.16;1793935;80;21562;-66
2022/12/05 09:56:24;;;;;;;6.33;3.30;;;;;;;-2.29;100.00;101859.16;1770370;81;21037;-67
2022/12/05 09:58:56;;;;;;;8.10;3.37;;;;;;;-2.19;100.00;101862.44;1774943;79;21451;-66
2022/12/05 10:01:59;;;;;;;7.60;3.52;;;;;;;-2.19;100.00;101861.11;1813979;78;21061;-74
2022/12/05 10:04:47;;;;;;;8.30;3.70;;;;;;;-2.21;100.00;101866.02;1780847;78;21037;-65
2022/12/05 10:07:34;;;;;;;9.87;3.77;;;;;;;-2.22;100.00;101861.66;1819956;78;21036;-66
2022/12/05 10:10:23;;;;;;;9.33;4.10;;;;;;;-2.24;100.00;101849.77;1820608;78;21094;-66
2022/12/05 10:13:07;;;;;;;8.97;3.90;;;;;;;-2.23;100.00;101855.92;1822497;78;20966;-73
2022/12/05 10:15:42;;;;;;;6.97;3.20;;;;;;;-2.23;100.00;101856.82;1817937;78;21030;-71
2022/12/05 10:18:45;;;;;;;11.07;4.10;;;;;;;-2.21;100.00;101841.73;1811877;78;20998;-74
2022/12/05 10:21:35;;;;;;;18.77;4.03;;;;;;;-2.11;100.00;101846.30;1787250;78;21037;-66
2022/12/05 10:24:05;;;;;;;14.90;3.80;;;;;;;-2.08;100.00;101838.26;1813903;78;21058;-72
2022/12/05 10:26:39;;;;;;;12.67;4.03;;;;;;;-2.05;100.00;101836.85;1827098;78;20955;-72
2022/12/05 10:29:29;;;;;;;9.73;3.60;;;;;;;-2.02;100.00;101834.55;1826486;78;21236;-70
2022/12/05 10:32:21;;;;;;;14.27;4.80;;;;;;;-2.06;100.00;101847.03;1833714;78;21076;-73
2022/12/05 10:34:48;;;;;;;13.17;4.60;;;;;;;-2.03;100.00;101841.64;1821530;78;21052;-66
2022/12/05 10:37:22;;;;;;;8.97;3.90;;;;;;;-2.03;100.00;101842.97;1784131;78;21013;-73
2022/12/05 10:39:54;;;;;;;7.20;3.57;;;;;;;-2.00;100.00;101840.67;1809865;78;20975;-73
2022/12/05 10:42:25;;;;;;;12.27;4.17;;;;;;;-1.93;100.00;101834.27;1783721;78;21180;-74
2022/12/05 10:44:58;;;;;;;11.53;3.53;;;;;;;-1.94;100.00;101832.55;1816057;78;21056;-74
2022/12/05 10:47:26;;;;;;;12.40;4.23;;;;;;;-1.95;100.00;101835.66;1804748;78;21531;-76
2022/12/05 10:49:55;;;;;;;9.97;3.27;;;;;;;-1.95;100.00;101838.75;1824491;78;21013;-64
2022/12/05 10:52:23;;;;;;;15.07;4.70;;;;;;;-2.02;100.00;101836.77;1831768;78;20978;-66
2022/12/05 10:55:02;;;;;;;11.20;3.97;;;;;;;-2.00;100.00;101836.26;1827133;78;21005;-67
2022/12/05 10:57:30;;;;;;;8.73;4.30;;;;;;;-2.00;100.00;101831.39;1834126;78;20978;-65
2022/12/05 11:00:01;;;;;;;12.37;4.80;;;;;;;-1.88;100.00;101825.71;1832325;78;21053;-65
2022/12/05 11:02:30;;;;;;;11.00;4.30;;;;;;;-1.74;100.00;101822.64;1832125;78;21106;-64
2022/12/05 11:04:59;;;;;;;16.13;4.97;;;;;;;-1.56;100.00;101818.09;1834678;78;21562;-64
2022/12/05 11:07:31;;;;;;;25.33;9.03;;;;;;;-1.43;100.00;101821.67;1827007;78;20946;-64
2022/12/05 11:10:01;;;;;;;22.40;7.67;;;;;;;-1.40;100.00;101826.84;1834520;78;20942;-64
2022/12/05 11:12:40;;;;;;;18.87;5.43;;;;;;;-1.36;100.00;101824.53;1801909;78;21013;-64
2022/12/05 11:15:26;;;;;;;12.83;4.90;;;;;;;-1.24;100.00;101824.12;1834411;78;21092;-64
2022/12/05 11:17:55;;;;;;;14.03;4.70;;;;;;;-1.08;100.00;101814.28;1833450;78;20965;-64
2022/12/05 11:20:28;;;;;;;13.23;4.30;;;;;;;-1.00;100.00;101820.20;1811361;78;20993;-64
2022/12/05 11:22:55;;;;;;;15.75;4.40;;;;;;;-0.93;100.00;101821.73;1808561;78;21034;-64
2022/12/05 11:25:33;;;;;;;13.17;4.03;;;;;;;-0.93;100.00;101828.37;1828603;78;21032;-65
2022/12/05 11:28:22;;;;;;;11.97;4.47;;;;;;;-1.08;100.00;101833.76;1795291;78;21017;-72
2022/12/05 11:31:17;;;;;;;15.20;4.33;;;;;;;-1.24;100.00;101830.75;1802289;77;21028;-72
2022/12/05 11:33:47;;;;;;;8.77;4.50;;;;;;;-1.25;100.00;101830.33;1795124;78;20996;-72
2022/12/05 11:36:21;;;;;;;14.67;4.50;;;;;;;-1.27;100.00;101828.66;1761619;81;21049;-71
2022/12/05 11:38:48;;;;;;;10.33;4.20;;;;;;;-1.32;100.00;101820.84;1786227;80;21035;-73
2022/12/05 11:41:44;;;;;;;13.73;4.83;;;;;;;-1.26;100.00;101819.77;1786486;80;21087;-71
2022/12/05 11:44:46;;;;;;;15.27;4.80;;;;;;;-1.05;100.00;101812.39;1787171;80;21026;-65
2022/12/05 11:47:45;;;;;;;10.50;4.10;;;;;;;-0.71;100.00;101817.83;1786131;80;21057;-66
2022/12/05 11:50:48;;;;;;;11.97;4.47;;;;;;;-0.50;100.00;101825.97;1787249;79;21031;-66
2022/12/05 11:53:43;;;;;;;13.53;4.63;;;;;;;-0.28;100.00;101815.42;1787591;80;21035;-66
2022/12/05 11:56:40;;;;;;;11.57;4.27;;;;;;;0.30;100.00;101815.81;1769397;81;21943;-66
2022/12/05 11:59:28;;;;;;;16.67;4.80;;;;;;;0.66;100.00;101828.55;1787490;80;21583;-67
2022/12/05 12:02:43;;;;;;;10.53;4.10;;;;;;;1.03;100.00;101825.66;1787778;80;21081;-73
2022/12/05 12:05:36;;;;;;;12.83;4.43;;;;;;;1.37;100.00;101834.84;1786939;80;21062;-73
2022/12/05 12:08:29;;;;;;;12.10;4.80;;;;;;;1.59;100.00;101843.22;1787119;80;21030;-74
2022/12/05 18:43:22;;;;;;;9.03;3.87;;;;;;;-7.20;100.00;101791.22;1866293;75;22939;-66
2022/12/05 18:45:59;;;;;;;9.13;3.80;;;;;;;-7.13;100.00;101794.20;1841601;78;21569;-66
2022/12/05 18:48:30;;;;;;;6.93;3.37;;;;;;;-7.12;100.00;101798.56;1841157;76;20993;-65
2022/12/05 18:51:12;;;;;;;11.70;3.57;;;;;;;-7.12;100.00;101789.36;1835979;78;21010;-66
2022/12/05 18:53:41;;;;;;;4.85;2.98;;;;;;;-7.12;100.00;101802.50;1840098;76;21009;-65
2022/12/05 18:56:11;;;;;;;7.10;2.97;;;;;;;-7.17;100.00;101793.79;1838577;76;21431;-65
2022/12/05 18:58:38;;;;;;;9.93;3.60;;;;;;;-7.17;100.00;101793.37;1839627;76;21499;-65
2022/12/05 19:01:15;;;;;;;6.07;3.03;;;;;;;-7.17;100.00;101797.73;1839751;78;21029;-66
2022/12/05 19:03:43;;;;;;;9.87;3.23;;;;;;;-7.19;100.00;101796.43;1840397;76;21511;-65
2022/12/05 19:06:14;;;;;;;7.37;3.07;;;;;;;-7.20;100.00;101789.90;1840133;78;21025;-65
2022/12/05 19:08:43;;;;;;;6.43;3.00;;;;;;;-7.22;100.00;101792.54;1839526;76;21049;-65
2022/12/05 19:11:13;;;;;;;7.10;3.60;;;;;;;-7.24;100.00;101791.69;1840807;76;21041;-66
2022/12/05 19:13:41;;;;;;;6.43;3.30;;;;;;;-7.25;100.00;101788.16;1839831;76;21029;-65
2022/12/05 19:16:13;;;;;;;11.23;4.30;;;;;;;-7.27;100.00;101794.34;1839511;76;21053;-66
2022/12/05 19:18:40;;;;;;;8.37;3.23;;;;;;;-7.29;100.00;101794.35;1839860;76;21502;-66
2022/12/05 19:21:08;;;;;;;11.30;3.00;;;;;;;-7.30;100.00;101807.50;1839014;78;20965;-65
2022/12/05 19:23:36;;;;;;;7.83;3.40;;;;;;;-7.33;100.00;101795.69;1838774;78;21064;-67
2022/12/05 19:26:06;;;;;;;13.47;3.60;;;;;;;-7.35;100.00;101803.59;1840613;76;21057;-67
2022/12/05 19:28:34;;;;;;;10.03;3.53;;;;;;;-7.37;100.00;101792.22;1840326;78;21002;-66
2022/12/05 19:31:07;;;;;;;8.33;3.30;;;;;;;-7.39;100.00;101793.14;1840606;76;21001;-66
2022/12/05 19:33:41;;;;;;;6.33;3.30;;;;;;;-7.39;100.00;101794.45;1838809;78;21021;-66
2022/12/05 19:36:14;;;;;;;4.97;2.77;;;;;;;-7.40;100.00;101788.75;1839087;76;21017;-65
2022/12/05 19:38:43;;;;;;;6.47;3.23;;;;;;;-7.45;100.00;101783.56;1838667;78;21514;-66
2022/12/05 19:41:12;;;;;;;6.57;2.90;;;;;;;-7.48;100.00;101790.14;1838605;77;21076;-66
2022/12/05 19:43:42;;;;;;;4.23;3.00;;;;;;;-7.52;100.00;101776.16;1838907;78;21440;-66
2022/12/05 19:46:24;;;;;;;11.07;3.73;;;;;;;-7.54;100.00;101777.94;1832920;76;21042;-67
2022/12/05 19:48:52;;;;;;;7.35;3.50;;;;;;;-7.57;100.00;101775.78;1835395;76;21021;-66
2022/12/05 19:51:19;;;;;;;7.80;2.70;;;;;;;-7.59;100.00;101777.55;1831009;76;21026;-66
2022/12/05 19:53:47;;;;;;;10.70;3.33;;;;;;;-7.62;100.00;101766.61;1830145;76;21491;-66
2022/12/05 19:56:22;;;;;;;4.47;2.90;;;;;;;-7.65;100.00;101776.72;1833040;76;21507;-66
2022/12/05 19:58:51;;;;;;;9.30;3.47;;;;;;;-7.66;100.00;101783.30;1834621;76;20958;-66
2022/12/05 20:01:21;;;;;;;7.27;3.20;;;;;;;-7.68;100.00;101786.37;1798275;78;21021;-65
2022/12/05 20:03:52;;;;;;;10.47;3.63;;;;;;;-7.70;100.00;101781.13;1802991;79;21025;-66
2022/12/05 20:06:20;;;;;;;6.10;3.33;;;;;;;-7.73;100.00;101777.66;1830128;78;20988;-66
2022/12/05 20:08:51;;;;;;;8.13;3.73;;;;;;;-7.76;100.00;101785.56;1830769;78;21030;-65
2022/12/05 20:11:20;;;;;;;7.13;3.23;;;;;;;-7.79;100.00;101788.20;1830942;78;21532;-65
2022/12/05 20:13:48;;;;;;;8.07;3.60;;;;;;;-7.81;100.00;101785.58;1835304;78;21056;-66
2022/12/05 20:16:17;;;;;;;6.17;2.73;;;;;;;-7.82;100.00;101792.59;1835214;78;21026;-65
2022/12/05 20:18:44;;;;;;;7.37;3.30;;;;;;;-7.83;100.00;101784.72;1827795;76;21004;-65
2022/12/05 20:21:13;;;;;;;6.50;3.10;;;;;;;-7.84;100.00;101786.94;1835226;78;21045;-66
2022/12/05 20:23:41;;;;;;;5.53;3.03;;;;;;;-7.86;100.00;101782.11;1835022;78;21052;-65
2022/12/05 20:26:22;;;;;;;7.97;3.30;;;;;;;-7.87;100.00;101783.88;1833140;78;21057;-65
2022/12/05 20:28:49;;;;;;;5.77;2.67;;;;;;;-7.92;100.00;101781.72;1833977;78;21529;-66
2022/12/05 20:31:21;;;;;;;6.30;2.93;;;;;;;-7.93;100.00;101790.50;1835014;78;21053;-65
2022/12/05 20:33:50;;;;;;;8.80;3.52;;;;;;;-7.94;100.00;101794.00;1835131;78;21025;-66
2022/12/05 20:36:20;;;;;;;6.40;3.13;;;;;;;-7.96;100.00;101785.26;1835285;78;21546;-67
2022/12/05 20:38:47;;;;;;;10.53;3.33;;;;;;;-7.98;100.00;101789.66;1835208;78;21002;-66
2022/12/05 20:41:17;;;;;;;12.90;3.83;;;;;;;-7.99;100.00;101787.90;1835309;78;21507;-66
2022/12/05 20:43:45;;;;;;;7.37;3.50;;;;;;;-8.02;100.00;101784.87;1834956;78;21486;-66
2022/12/05 20:46:17;;;;;;;10.70;3.40;;;;;;;-8.03;100.00;101776.55;1835278;78;20989;-66
2022/12/05 20:48:45;;;;;;;6.60;3.20;;;;;;;-8.04;100.00;101776.14;1835117;78;20986;-66
2022/12/05 20:51:14;;;;;;;7.70;3.30;;;;;;;-8.04;100.00;101771.30;1835188;78;20994;-66
2022/12/05 20:53:42;;;;;;;8.13;3.10;;;;;;;-8.07;100.00;101776.15;1835181;78;20998;-66